createdAt,value
2022-08-18T00:02:06.470Z,21.90
2022-08-18T00:04:43.396Z,22.10
2022-08-18T00:07:21.182Z,22.00
2022-08-18T00:09:49.298Z,22.00
2022-08-18T00:12:24.657Z,21.70
2022-08-18T00:14:55.372Z,21.50
2022-08-18T00:17:25.067Z,21.50
2022-08-18T00:19:53.059Z,21.50
2022-08-18T00:22:23.021Z,21.50
2022-08-18T00:24:54.315Z,21.50
2022-08-18T00:27:28.208Z,21.70
2022-08-18T00:30:01.333Z,21.70
2022-08-18T00:32:33.795Z,21.70
2022-08-18T00:35:08.926Z,21.70
2022-08-18T00:37:37.410Z,21.70
2022-08-18T00:40:07.434Z,21.80
2022-08-18T00:42:44.855Z,21.70
2022-08-18T00:45:20.305Z,21.40
2022-08-18T00:47:48.576Z,21.30
2022-08-18T00:50:22.912Z,21.40
2022-08-18T00:52:59.531Z,21.30
2022-08-18T00:55:30.810Z,21.10
2022-08-18T00:58:06.429Z,21.00
2022-08-18T01:00:36.710Z,21.00
2022-08-18T01:03:12.446Z,21.00
2022-08-18T01:05:49.393Z,20.90
2022-08-18T01:08:18.716Z,21.00
2022-08-18T01:10:58.754Z,21.10
2022-08-18T01:13:31.584Z,21.20
2022-08-18T01:16:22.765Z,21.30
2022-08-18T01:19:08.637Z,21.20
2022-08-18T01:21:53.680Z,21.20
2022-08-18T01:24:42.674Z,21.20
2022-08-18T01:27:17.285Z,21.20
2022-08-18T01:29:46.111Z,21.30
2022-08-18T01:32:19.625Z,21.20
2022-08-18T01:34:49.808Z,21.20
2022-08-18T01:37:21.241Z,21.10
2022-08-18T01:41:22.075Z,21.10
2022-08-18T01:42:40.230Z,21.10
2022-08-18T01:45:10.513Z,21.00
2022-08-18T01:47:48.001Z,20.90
2022-08-18T01:50:17.636Z,20.90
2022-08-18T01:52:45.797Z,20.80
2022-08-18T01:55:15.133Z,20.80
2022-08-18T01:57:43.161Z,20.80
2022-08-18T02:00:14.570Z,20.70
2022-08-18T02:02:43.122Z,20.70
2022-08-18T02:05:15.740Z,20.70
2022-08-18T02:07:46.779Z,20.70
2022-08-18T02:10:18.050Z,20.60
2022-08-18T02:12:46.166Z,20.60
2022-08-18T02:15:14.354Z,20.50
2022-08-18T02:17:46.266Z,20.50
2022-08-18T02:20:19.124Z,20.50
2022-08-18T02:22:48.881Z,20.50
2022-08-18T02:25:19.739Z,20.50
2022-08-18T02:27:47.850Z,20.30
2022-08-18T02:30:18.983Z,20.30
2022-08-18T02:32:46.998Z,20.30
2022-08-18T02:35:14.983Z,20.30
2022-08-18T02:37:47.774Z,20.30
2022-08-18T02:40:19.086Z,20.20
2022-08-18T02:42:48.448Z,20.20
2022-08-18T02:45:16.727Z,20.00
2022-08-18T02:47:45.807Z,20.10
2022-08-18T02:50:16.526Z,20.00
2022-08-18T02:52:44.498Z,19.90
2022-08-18T02:55:13.217Z,19.90
2022-08-18T02:57:45.955Z,19.90
2022-08-18T03:00:19.033Z,20.00
2022-08-18T03:02:47.986Z,20.00
2022-08-18T03:05:16.572Z,19.90
2022-08-18T03:07:45.354Z,19.90
2022-08-18T03:10:33.409Z,19.90
2022-08-18T03:13:03.578Z,19.70
2022-08-18T03:15:31.618Z,19.50
2022-08-18T03:18:02.086Z,19.40
2022-08-18T03:20:31.315Z,19.40
2022-08-18T03:23:05.565Z,19.30
2022-08-18T03:25:44.418Z,19.30
2022-08-18T03:28:14.685Z,19.30
2022-08-18T03:30:43.335Z,19.30
2022-08-18T03:33:11.560Z,19.30
2022-08-18T03:35:41.010Z,19.30
2022-08-18T03:38:09.980Z,19.40
2022-08-18T03:40:38.073Z,19.50
2022-08-18T03:43:38.925Z,19.40
2022-08-18T03:45:56.309Z,19.10
2022-08-18T03:48:25.269Z,19.00
2022-08-18T03:50:53.292Z,19.00
2022-08-18T03:53:21.341Z,19.00
2022-08-18T03:55:49.261Z,19.00
2022-08-18T03:58:17.188Z,19.10
2022-08-18T04:00:45.145Z,19.00
2022-08-18T04:03:14.386Z,19.10
2022-08-18T04:05:42.361Z,19.30
2022-08-18T04:08:10.294Z,19.30
2022-08-18T04:10:38.395Z,19.20
2022-08-18T04:13:06.733Z,19.20
2022-08-18T04:15:34.757Z,19.30
2022-08-18T04:18:04.546Z,19.30
2022-08-18T04:20:34.081Z,18.90
2022-08-18T04:23:03.116Z,18.80
2022-08-18T04:25:33.377Z,18.90
2022-08-18T04:28:03.542Z,18.80
2022-08-18T04:30:32.080Z,18.50
2022-08-18T04:33:02.363Z,18.40
2022-08-18T04:35:33.609Z,18.40
2022-08-18T04:38:01.712Z,18.60
2022-08-18T04:40:30.107Z,18.60
2022-08-18T04:42:58.118Z,18.70
2022-08-18T04:45:26.191Z,18.80
2022-08-18T04:47:54.814Z,18.80
2022-08-18T04:50:24.547Z,18.90
2022-08-18T04:53:17.346Z,19.10
2022-08-18T04:55:49.561Z,19.20
2022-08-18T04:58:18.609Z,19.20
2022-08-18T05:00:47.038Z,19.40
2022-08-18T05:03:15.152Z,19.60
2022-08-18T05:05:43.139Z,19.80
2022-08-18T05:08:12.397Z,19.90
2022-08-18T05:10:41.421Z,20.00
2022-08-18T05:13:09.788Z,20.00
2022-08-18T05:15:59.526Z,20.00
2022-08-18T05:18:26.646Z,20.00
2022-08-18T05:20:57.270Z,20.00
2022-08-18T05:23:26.981Z,20.20
2022-08-18T05:25:59.932Z,20.20
2022-08-18T05:28:27.925Z,20.20
2022-08-18T05:30:57.011Z,20.20
2022-08-18T05:33:28.595Z,20.20
2022-08-18T05:36:04.925Z,20.20
2022-08-18T05:38:48.810Z,20.30
2022-08-18T05:41:27.826Z,20.50
2022-08-18T05:43:58.324Z,20.60
2022-08-18T05:46:41.415Z,20.60
2022-08-18T05:49:09.707Z,20.70
2022-08-18T05:51:44.660Z,20.70
2022-08-18T05:54:34.415Z,20.80
2022-08-18T05:57:09.572Z,20.80
2022-08-18T05:59:42.830Z,20.90
2022-08-18T06:02:19.055Z,20.80
2022-08-18T06:04:55.916Z,20.70
2022-08-18T06:07:37.728Z,20.50
2022-08-18T06:10:11.162Z,20.50
2022-08-18T06:12:47.144Z,20.60
2022-08-18T06:15:20.053Z,20.60
2022-08-18T06:18:15.653Z,20.60
2022-08-18T06:21:12.562Z,20.60
2022-08-18T06:23:50.993Z,20.50
2022-08-18T06:26:34.489Z,20.60
2022-08-18T06:29:17.526Z,20.60
2022-08-18T06:31:56.672Z,20.60
2022-08-18T06:34:42.533Z,20.70
2022-08-18T06:37:20.948Z,20.70
2022-08-18T06:39:52.322Z,20.80
2022-08-18T06:42:30.621Z,20.90
2022-08-18T06:45:03.631Z,21.00
2022-08-18T06:47:41.065Z,21.10
2022-08-18T06:50:21.385Z,21.20
2022-08-18T06:52:55.879Z,21.20
2022-08-18T06:55:36.568Z,21.30
2022-08-18T06:58:20.674Z,21.30
2022-08-18T07:01:00.527Z,21.30
2022-08-18T07:03:46.784Z,21.30
2022-08-18T07:06:31.230Z,21.30
2022-08-18T07:09:24.113Z,21.20
2022-08-18T07:12:07.245Z,21.00
2022-08-18T07:14:47.941Z,21.20
2022-08-18T07:17:43.723Z,21.30
2022-08-18T07:20:24.335Z,21.40
2022-08-18T07:22:59.903Z,21.50
2022-08-18T07:25:33.698Z,21.40
2022-08-18T07:28:02.779Z,21.50
2022-08-18T07:30:37.526Z,21.50
2022-08-18T07:33:18.523Z,21.40
2022-08-18T07:35:51.117Z,21.40
2022-08-18T07:38:44.323Z,21.40
2022-08-18T07:41:20.347Z,21.40
2022-08-18T07:44:11.287Z,21.30
2022-08-18T07:46:53.114Z,21.30
2022-08-18T07:49:24.931Z,21.30
2022-08-18T07:52:04.343Z,21.20
2022-08-18T07:54:50.227Z,21.10
2022-08-18T07:57:41.845Z,21.00
2022-08-18T08:00:35.068Z,21.00
2022-08-18T08:03:30.538Z,21.10
2022-08-18T08:06:18.906Z,21.10
2022-08-18T08:09:02.422Z,21.00
2022-08-18T08:11:47.512Z,21.00
2022-08-18T08:14:37.898Z,21.00
2022-08-18T08:17:19.074Z,20.90
2022-08-18T08:20:11.260Z,20.90
2022-08-18T08:22:59.236Z,20.90
2022-08-18T08:25:46.371Z,21.10
2022-08-18T08:28:34.963Z,21.20
2022-08-18T08:31:35.282Z,21.30
2022-08-18T08:34:10.894Z,21.30
2022-08-18T08:36:45.865Z,21.40
2022-08-18T08:39:22.191Z,21.40
2022-08-18T08:42:07.338Z,21.30
2022-08-18T08:45:00.863Z,21.20
2022-08-18T08:47:36.451Z,21.20
2022-08-18T08:50:10.149Z,21.30
2022-08-18T08:52:47.334Z,21.40
2022-08-18T08:55:21.421Z,21.50
2022-08-18T08:57:57.758Z,21.60
2022-08-18T09:00:26.707Z,21.70
2022-08-18T09:03:14.568Z,21.70
2022-08-18T09:05:57.133Z,21.70
2022-08-18T09:08:50.308Z,21.60
2022-08-18T09:12:06.186Z,21.50
2022-08-18T09:15:20.600Z,21.50
2022-08-18T09:18:27.818Z,21.40
2022-08-18T09:21:18.570Z,21.30
2022-08-18T09:23:53.617Z,21.30
2022-08-18T09:26:40.604Z,21.30
2022-08-18T09:29:23.458Z,21.20
2022-08-18T09:32:49.150Z,21.10
2022-08-18T09:35:37.732Z,21.10
2022-08-18T09:38:30.500Z,21.20
2022-08-18T09:41:26.766Z,21.20
2022-08-18T09:44:21.145Z,21.20
2022-08-18T09:46:59.802Z,21.30
2022-08-18T09:49:53.530Z,21.40
2022-08-18T09:53:04.459Z,21.40
2022-08-18T09:58:54.859Z,21.30
2022-08-18T10:01:36.410Z,21.40
2022-08-18T10:04:32.778Z,21.40
2022-08-18T10:07:35.326Z,21.30
2022-08-18T10:11:00.572Z,21.30
2022-08-18T10:13:26.620Z,21.30
2022-08-18T10:16:15.788Z,21.30
2022-08-18T10:19:07.985Z,21.50
2022-08-18T10:22:11.631Z,21.70
2022-08-18T10:24:53.838Z,21.70
2022-08-18T10:27:54.393Z,21.80
2022-08-18T10:31:10.144Z,22.00
2022-08-18T10:34:16.928Z,22.00
2022-08-18T10:36:53.007Z,22.00
2022-08-18T10:39:24.429Z,22.00
2022-08-18T10:42:20.740Z,22.00
2022-08-18T10:44:55.097Z,22.00
2022-08-18T10:47:33.458Z,22.00
2022-08-18T10:50:13.517Z,22.10
2022-08-18T10:53:24.253Z,22.10
2022-08-18T10:56:01.425Z,22.20
2022-08-18T10:58:57.710Z,22.40
2022-08-18T11:02:07.606Z,22.50
2022-08-18T11:04:42.068Z,22.60
2022-08-18T11:07:21.945Z,22.60
2022-08-18T11:10:04.590Z,22.60
2022-08-18T11:12:57.809Z,22.50
2022-08-18T11:15:38.714Z,22.50
2022-08-18T11:18:30.921Z,22.50
2022-08-18T11:21:43.631Z,22.60
2022-08-18T11:24:21.006Z,22.70
2022-08-18T11:26:54.733Z,22.70
2022-08-18T11:29:32.271Z,22.70
2022-08-18T11:32:11.339Z,22.70
2022-08-18T11:34:52.914Z,22.80
2022-08-18T11:37:27.958Z,22.80
2022-08-18T11:43:29.883Z,23.20
2022-08-18T11:46:31.182Z,23.30
2022-08-18T11:49:04.321Z,23.40
2022-08-18T11:51:35.425Z,23.40
2022-08-18T11:54:23.574Z,23.40
2022-08-18T11:56:53.016Z,23.30
2022-08-18T11:59:55.020Z,23.40
2022-08-18T12:02:26.705Z,23.50
2022-08-18T12:05:10.396Z,23.50
2022-08-18T12:07:49.722Z,23.50
2022-08-18T12:10:29.532Z,23.50
2022-08-18T12:13:01.132Z,23.60
2022-08-18T12:15:46.758Z,23.50
2022-08-18T12:18:28.365Z,23.50
2022-08-18T12:20:58.573Z,23.50
2022-08-18T12:26:27.194Z,23.40
2022-08-18T12:29:04.427Z,23.50
2022-08-18T12:34:27.312Z,23.70
2022-08-18T12:36:58.375Z,23.80
2022-08-18T12:39:28.688Z,23.90
2022-08-18T12:41:58.498Z,24.10
2022-08-18T12:44:27.659Z,24.20
2022-08-18T12:46:57.459Z,24.20
2022-08-18T12:49:28.136Z,24.20
2022-08-18T12:51:58.073Z,24.10
2022-08-18T12:54:27.828Z,24.00
2022-08-18T12:56:57.626Z,23.90
2022-08-18T12:59:26.401Z,23.90
2022-08-18T13:02:01.553Z,23.90
2022-08-18T13:04:29.878Z,23.90
2022-08-18T13:07:05.650Z,24.00
2022-08-18T13:09:48.302Z,24.10
2022-08-18T13:12:22.484Z,24.10
2022-08-18T13:14:55.033Z,24.20
2022-08-18T13:17:32.196Z,24.30
2022-08-18T13:20:05.575Z,24.30
2022-08-18T13:22:33.691Z,24.40
2022-08-18T13:25:07.334Z,24.50
2022-08-18T13:27:37.567Z,24.50
2022-08-18T13:30:29.590Z,24.70
2022-08-18T13:33:02.419Z,24.80
2022-08-18T13:35:38.370Z,24.90
2022-08-18T13:38:18.789Z,25.00
2022-08-18T13:40:52.251Z,25.10
2022-08-18T13:43:26.046Z,25.30
2022-08-18T13:45:56.091Z,25.30
2022-08-18T13:48:25.470Z,25.30
2022-08-18T13:50:56.511Z,25.40
2022-08-18T13:53:27.451Z,25.40
2022-08-18T13:55:58.963Z,25.40
2022-08-18T13:58:28.461Z,25.40
2022-08-18T14:01:22.711Z,25.30
2022-08-18T14:03:49.992Z,25.10
2022-08-18T14:06:23.014Z,25.10
2022-08-18T14:08:53.342Z,25.00
2022-08-18T14:11:27.950Z,25.00
2022-08-18T14:14:02.697Z,25.00
2022-08-18T14:16:31.389Z,25.00
2022-08-18T14:19:17.705Z,25.00
2022-08-18T14:22:07.197Z,25.10
2022-08-18T14:24:59.710Z,25.10
2022-08-18T14:27:35.353Z,25.20
2022-08-18T14:30:06.637Z,25.30
2022-08-18T14:32:36.392Z,25.30
2022-08-18T14:35:31.817Z,25.30
2022-08-18T14:37:57.432Z,25.40
2022-08-18T14:40:25.465Z,25.30
2022-08-18T14:42:56.489Z,25.40
2022-08-18T14:45:31.122Z,25.40
2022-08-18T14:48:04.483Z,25.50
2022-08-18T14:50:36.924Z,25.50
2022-08-18T14:53:05.517Z,25.50
2022-08-18T14:55:34.107Z,25.50
2022-08-18T14:58:24.154Z,25.60
2022-08-18T15:00:54.015Z,25.60
2022-08-18T15:03:30.887Z,25.60
2022-08-18T15:06:04.749Z,25.60
2022-08-18T15:08:35.356Z,25.70
2022-08-18T15:11:11.578Z,25.70
2022-08-18T15:13:45.292Z,25.80
2022-08-18T15:16:15.680Z,25.80
2022-08-18T15:18:45.502Z,25.80
2022-08-18T15:21:38.481Z,25.80
2022-08-18T15:24:25.469Z,25.80
2022-08-18T15:26:57.427Z,25.90
2022-08-18T15:29:35.894Z,25.90
2022-08-18T15:32:10.456Z,25.90
2022-08-18T15:34:46.795Z,25.80
2022-08-18T15:37:22.270Z,25.80
2022-08-18T15:40:05.771Z,25.80
2022-08-18T15:42:33.764Z,25.80
2022-08-18T15:45:11.627Z,25.80
2022-08-18T15:47:42.331Z,25.70
2022-08-18T15:50:21.643Z,25.60
2022-08-18T15:52:56.206Z,25.50
2022-08-18T15:55:28.792Z,25.50
2022-08-18T15:57:58.583Z,25.40
2022-08-18T16:00:31.906Z,25.30
2022-08-18T16:03:03.870Z,25.30
2022-08-18T16:05:40.827Z,25.20
2022-08-18T16:08:11.777Z,25.10
2022-08-18T16:10:42.228Z,25.10
2022-08-18T16:13:10.799Z,25.10
2022-08-18T16:15:43.495Z,25.00
2022-08-18T16:18:12.033Z,25.00
2022-08-18T16:20:40.132Z,25.00
2022-08-18T16:23:08.518Z,25.00
2022-08-18T16:25:39.823Z,25.00
2022-08-18T16:28:08.069Z,25.00
2022-08-18T16:30:36.582Z,24.90
2022-08-18T16:33:07.890Z,24.90
2022-08-18T16:35:38.138Z,24.90
2022-08-18T16:38:08.999Z,24.90
2022-08-18T16:40:37.902Z,24.90
2022-08-18T16:43:07.232Z,24.80
2022-08-18T16:45:37.723Z,24.80
2022-08-18T16:48:08.286Z,24.80
2022-08-18T16:50:37.782Z,24.80
2022-08-18T16:53:06.848Z,24.80
2022-08-18T16:55:35.228Z,24.90
2022-08-18T16:58:20.581Z,24.90
2022-08-18T17:01:06.191Z,24.80
2022-08-18T17:03:52.931Z,24.80
2022-08-18T17:06:21.286Z,24.80
2022-08-18T17:08:49.288Z,24.70
2022-08-18T17:11:21.194Z,24.70
2022-08-18T17:13:52.158Z,24.70
2022-08-18T17:16:22.780Z,24.70
2022-08-18T17:18:54.115Z,24.60
2022-08-18T17:21:27.226Z,24.60
2022-08-18T17:23:56.051Z,24.50
2022-08-18T17:26:38.367Z,24.50
2022-08-18T17:29:22.412Z,24.50
2022-08-18T17:31:57.451Z,24.50
2022-08-18T17:34:37.929Z,24.40
2022-08-18T17:37:11.262Z,24.40
2022-08-18T17:39:48.002Z,24.40
2022-08-18T17:42:31.079Z,24.30
2022-08-18T17:45:01.937Z,24.30
2022-08-18T17:47:44.518Z,24.30
2022-08-18T17:50:43.273Z,24.20
2022-08-18T17:53:12.571Z,24.20
2022-08-18T17:55:45.847Z,24.20
2022-08-18T17:58:27.465Z,24.20
2022-08-18T18:00:55.499Z,24.10
2022-08-18T18:03:23.646Z,24.10
2022-08-18T18:06:09.578Z,24.00
2022-08-18T18:08:54.544Z,24.00
2022-08-18T18:11:32.003Z,24.00
2022-08-18T18:14:02.162Z,23.90
2022-08-18T18:16:35.804Z,23.90
2022-08-18T18:19:07.339Z,23.90
2022-08-18T18:21:55.266Z,23.90
2022-08-18T18:24:34.762Z,23.90
2022-08-18T18:27:23.142Z,23.90
2022-08-18T18:29:58.001Z,23.80
2022-08-18T18:32:31.217Z,23.80
2022-08-18T18:35:19.285Z,23.80
2022-08-18T18:37:53.965Z,23.80
2022-08-18T18:40:34.629Z,23.80
2022-08-18T18:43:28.864Z,23.80
2022-08-18T18:46:16.669Z,23.80
2022-08-18T18:49:00.433Z,23.80
2022-08-18T18:51:39.734Z,23.80
2022-08-18T18:54:40.411Z,23.80
2022-08-18T18:57:19.452Z,23.80
2022-08-18T19:00:10.051Z,23.80
2022-08-18T19:02:49.800Z,23.70
2022-08-18T19:05:28.915Z,23.70
2022-08-18T19:08:06.862Z,23.60
2022-08-18T19:10:50.263Z,23.60
2022-08-18T19:13:30.364Z,23.60
2022-08-18T19:16:24.343Z,23.60
2022-08-18T19:19:36.235Z,23.50
2022-08-18T19:22:04.587Z,23.50
2022-08-18T19:24:43.924Z,23.40
2022-08-18T19:27:25.233Z,23.40
2022-08-18T19:30:00.373Z,23.40
2022-08-18T19:32:43.811Z,23.30
2022-08-18T19:35:20.060Z,23.30
2022-08-18T19:38:04.331Z,23.20
2022-08-18T19:40:42.561Z,23.20
2022-08-18T19:43:29.791Z,23.10
2022-08-18T19:46:10.570Z,23.00
2022-08-18T19:48:51.353Z,23.00
2022-08-18T19:51:29.601Z,22.90
2022-08-18T19:54:33.530Z,22.80
2022-08-18T19:57:23.819Z,22.80
2022-08-18T20:00:22.758Z,22.70
2022-08-18T20:03:46.975Z,22.60
2022-08-18T20:06:45.633Z,22.40
2022-08-18T20:09:47.588Z,22.30
2022-08-18T20:12:40.210Z,22.30
2022-08-18T20:15:21.650Z,22.20
2022-08-18T20:18:20.327Z,22.20
2022-08-18T20:21:41.332Z,22.20
2022-08-18T20:24:36.273Z,22.10
2022-08-18T20:27:35.169Z,22.10
2022-08-18T20:30:28.252Z,22.00
2022-08-18T20:33:18.632Z,22.00
2022-08-18T20:36:00.014Z,21.90
2022-08-18T20:38:35.450Z,21.90
2022-08-18T20:41:33.161Z,21.90
2022-08-18T20:44:45.191Z,21.90
2022-08-18T20:47:44.366Z,21.90
2022-08-18T20:51:02.255Z,21.90
2022-08-18T20:54:17.849Z,21.90
2022-08-18T20:56:54.323Z,21.80
2022-08-18T20:59:30.920Z,21.80
2022-08-18T21:02:03.391Z,21.70
2022-08-18T21:04:53.391Z,21.70
2022-08-18T21:07:37.091Z,21.70
2022-08-18T21:10:14.627Z,21.70
2022-08-18T21:12:51.796Z,21.70
2022-08-18T21:15:24.158Z,21.70
2022-08-18T21:18:00.040Z,21.50
2022-08-18T21:20:31.422Z,21.50
2022-08-18T21:23:06.619Z,21.40
2022-08-18T21:25:35.446Z,21.20
2022-08-18T21:28:05.994Z,21.10
2022-08-18T21:30:34.279Z,21.00
2022-08-18T21:33:02.547Z,20.90
2022-08-18T21:35:35.078Z,20.70
2022-08-18T21:38:08.043Z,20.60
2022-08-18T21:40:42.543Z,20.50
2022-08-18T21:43:14.905Z,20.40
2022-08-18T21:45:53.032Z,20.30
2022-08-18T21:48:23.746Z,20.20
2022-08-18T21:50:58.762Z,20.20
2022-08-18T21:53:31.606Z,20.00
2022-08-18T21:56:01.401Z,20.00
2022-08-18T21:58:40.151Z,20.10
2022-08-18T22:01:20.114Z,20.00
2022-08-18T22:03:57.689Z,20.00
2022-08-18T22:06:40.238Z,20.10
2022-08-18T22:09:37.057Z,20.20
2022-08-18T22:12:45.998Z,20.30
2022-08-18T22:15:20.627Z,20.40
2022-08-18T22:17:57.415Z,20.30
2022-08-18T22:20:46.675Z,20.40
2022-08-18T22:23:59.372Z,20.30
2022-08-18T22:26:31.066Z,20.20
2022-08-18T22:29:04.738Z,20.10
2022-08-18T22:31:36.170Z,20.20
2022-08-18T22:34:08.175Z,20.10
2022-08-18T22:36:42.022Z,20.10
2022-08-18T22:39:17.228Z,20.00
2022-08-18T22:41:46.238Z,20.10
2022-08-18T22:44:14.299Z,20.20
2022-08-18T22:46:42.420Z,20.20
2022-08-18T22:49:10.468Z,20.10
2022-08-18T22:51:39.192Z,20.10
2022-08-18T22:54:10.869Z,20.20
2022-08-18T22:56:53.833Z,20.30
2022-08-18T22:59:25.480Z,20.30
2022-08-18T23:01:57.137Z,20.40
2022-08-18T23:04:26.283Z,20.30
2022-08-18T23:06:55.491Z,20.40
2022-08-18T23:09:28.435Z,20.40
2022-08-18T23:12:04.537Z,20.40
2022-08-18T23:14:33.115Z,20.30
2022-08-18T23:17:02.806Z,20.10
2022-08-18T23:19:31.875Z,20.10
2022-08-18T23:22:00.219Z,20.10
2022-08-18T23:24:29.253Z,20.00
2022-08-18T23:26:59.766Z,20.00
2022-08-18T23:29:28.291Z,19.90
2022-08-18T23:31:56.310Z,20.10
2022-08-18T23:34:27.177Z,20.10
2022-08-18T23:37:00.865Z,20.30
2022-08-18T23:39:32.079Z,20.30
2022-08-18T23:42:03.844Z,20.40
2022-08-18T23:44:32.299Z,20.50
2022-08-18T23:47:01.158Z,20.50
2022-08-18T23:49:31.318Z,20.50
2022-08-18T23:52:01.320Z,20.40
2022-08-18T23:54:34.315Z,20.40
2022-08-18T23:57:03.599Z,20.40
2022-08-18T23:59:31.976Z,20.40
